Time;durP1;ratioP1;P1;durP2;ratioP2;P2;SDS_P1;SDS_P2;PMS_P1;PMS_P2;Temp;Humidity;BMP_temperature;BMP_pressure;BME280_temperature;BME280_humidity;BME280_pressure;Samples;Min_cycle;Max_cycle;Signal;HPM_P1;HPM_P2
2023/04/17 00:00:22;;;;;;;71.73;44.20;;;;;;;;;;5086301;28;20111;-82
2023/04/17 00:02:48;;;;;;;67.63;43.53;;;;;;;;;;5077717;28;20028;-80
2023/04/17 00:05:16;;;;;;;69.00;43.80;;;;;;;;;;5088315;28;20012;-81
2023/04/17 00:07:42;;;;;;;71.23;43.17;;;;;;;;;;5071552;28;20025;-80
2023/04/17 00:10:16;;;;;;;74.97;45.70;;;;;;;;;;5082244;28;20021;-80
2023/04/17 00:12:45;;;;;;;71.77;43.30;;;;;;;;;;5082541;28;20049;-80
2023/04/17 00:15:14;;;;;;;77.50;45.40;;;;;;;;;;5081962;28;20042;-80
2023/04/17 00:17:43;;;;;;;81.37;47.20;;;;;;;;;;5080843;28;20054;-80
2023/04/17 00:20:09;;;;;;;71.67;45.47;;;;;;;;;;5081834;28;20043;-80
2023/04/17 00:22:38;;;;;;;76.03;46.20;;;;;;;;;;5079821;28;20035;-80
2023/04/17 00:25:05;;;;;;;76.97;45.53;;;;;;;;;;5082315;28;20024;-79
2023/04/17 00:27:36;;;;;;;76.13;47.37;;;;;;;;;;5083196;28;20044;-80
2023/04/17 00:30:05;;;;;;;80.90;46.73;;;;;;;;;;5076648;28;20179;-80
2023/04/17 00:32:38;;;;;;;84.67;49.93;;;;;;;;;;5083499;28;20027;-79
2023/04/17 00:35:04;;;;;;;82.47;49.30;;;;;;;;;;5076634;28;20115;-79
2023/04/17 00:37:30;;;;;;;75.67;46.67;;;;;;;;;;5083409;28;20044;-79
2023/04/17 00:39:59;;;;;;;80.87;49.13;;;;;;;;;;5077379;28;20028;-80
2023/04/17 00:42:27;;;;;;;87.43;49.50;;;;;;;;;;5081590;28;20016;-80
2023/04/17 00:44:53;;;;;;;85.90;53.30;;;;;;;;;;5081561;28;20113;-81
2023/04/17 00:47:21;;;;;;;81.53;50.10;;;;;;;;;;5079531;28;20043;-82
2023/04/17 00:49:47;;;;;;;88.60;52.07;;;;;;;;;;5082418;28;20096;-82
2023/04/17 00:52:35;;;;;;;84.47;52.80;;;;;;;;;;5078829;28;20029;-81
2023/04/17 00:55:01;;;;;;;93.80;53.43;;;;;;;;;;5079437;28;20074;-82
2023/04/17 00:57:27;;;;;;;90.40;53.03;;;;;;;;;;5077430;28;20028;-81
2023/04/17 00:59:55;;;;;;;85.77;54.40;;;;;;;;;;5076939;28;20040;-80
2023/04/17 01:02:23;;;;;;;92.40;53.97;;;;;;;;;;5084049;28;20037;-80
2023/04/17 01:04:52;;;;;;;91.20;51.30;;;;;;;;;;5080241;28;20067;-82
2023/04/17 01:07:18;;;;;;;89.13;53.73;;;;;;;;;;5081192;28;20008;-80
2023/04/17 01:09:44;;;;;;;86.63;52.93;;;;;;;;;;5079501;28;20035;-80
2023/04/17 01:12:19;;;;;;;92.03;51.33;;;;;;;;;;5076292;28;20021;-80
2023/04/17 01:14:45;;;;;;;90.77;52.57;;;;;;;;;;5083319;28;20076;-80
2023/04/17 01:17:14;;;;;;;81.80;52.37;;;;;;;;;;5074216;28;20029;-79
2023/04/17 01:19:43;;;;;;;89.57;53.17;;;;;;;;;;5073544;28;20044;-81
2023/04/17 01:22:09;;;;;;;91.50;52.20;;;;;;;;;;5078643;28;20025;-80
2023/04/17 01:24:35;;;;;;;88.87;53.60;;;;;;;;;;5081064;28;20028;-80
2023/04/17 01:27:01;;;;;;;87.43;52.03;;;;;;;;;;5075783;28;20044;-80
2023/04/17 01:29:30;;;;;;;84.50;51.30;;;;;;;;;;5085202;28;20116;-80
2023/04/17 01:31:56;;;;;;;93.23;54.83;;;;;;;;;;5075212;28;20014;-80
2023/04/17 01:34:22;;;;;;;94.40;56.13;;;;;;;;;;5081921;28;20081;-80
2023/04/17 01:36:50;;;;;;;87.10;54.67;;;;;;;;;;5083545;28;20047;-80
2023/04/17 01:39:16;;;;;;;100.00;57.60;;;;;;;;;;5079322;28;20109;-81
2023/04/17 01:41:42;;;;;;;94.47;56.13;;;;;;;;;;5079342;28;20017;-79
2023/04/17 01:44:08;;;;;;;88.20;56.60;;;;;;;;;;5305249;22;20047;-80
2023/04/17 01:49:11;;;;;;;91.43;55.43;;;;;;;;;;5042603;28;20048;-80
2023/04/17 01:51:37;;;;;;;97.37;58.40;;;;;;;;;;5040399;28;20021;-81
2023/04/17 01:54:03;;;;;;;94.50;57.27;;;;;;;;;;5054039;28;20033;-80
2023/04/17 01:56:29;;;;;;;108.97;58.63;;;;;;;;;;5042266;28;20025;-80
2023/04/17 01:58:58;;;;;;;93.07;54.23;;;;;;;;;;5048575;28;20033;-80
2023/04/17 02:01:24;;;;;;;89.63;57.27;;;;;;;;;;5051829;28;20378;-82
2023/04/17 02:03:50;;;;;;;95.00;54.90;;;;;;;;;;5049225;28;20013;-80
2023/04/17 02:06:16;;;;;;;99.60;57.97;;;;;;;;;;5051631;28;20212;-80
2023/04/17 02:08:42;;;;;;;93.63;58.47;;;;;;;;;;5039572;28;20018;-80
2023/04/17 02:11:09;;;;;;;88.10;54.57;;;;;;;;;;5042097;28;20106;-80
2023/04/17 02:13:35;;;;;;;94.57;57.33;;;;;;;;;;5056659;28;20129;-80
2023/04/17 02:16:01;;;;;;;95.23;58.67;;;;;;;;;;5053700;28;20105;-80
2023/04/17 02:18:29;;;;;;;96.97;57.47;;;;;;;;;;5045573;28;20014;-82
2023/04/17 02:21:00;;;;;;;90.97;58.27;;;;;;;;;;5042425;28;20017;-82
2023/04/17 02:23:27;;;;;;;100.43;58.67;;;;;;;;;;5050416;28;20025;-80
2023/04/17 02:25:53;;;;;;;96.80;60.87;;;;;;;;;;5054983;28;20021;-82
2023/04/17 02:28:19;;;;;;;99.27;59.03;;;;;;;;;;5045572;28;20040;-80
2023/04/17 02:30:45;;;;;;;98.90;59.83;;;;;;;;;;5047006;28;20086;-80
2023/04/17 02:33:11;;;;;;;96.57;56.93;;;;;;;;;;5034864;28;20022;-81
2023/04/17 02:35:37;;;;;;;90.13;56.87;;;;;;;;;;5050106;28;20030;-81
2023/04/17 02:38:05;;;;;;;95.10;57.27;;;;;;;;;;5049036;28;20048;-80
2023/04/17 02:40:31;;;;;;;93.23;57.07;;;;;;;;;;5048543;28;20006;-81
2023/04/17 02:42:57;;;;;;;94.47;58.33;;;;;;;;;;5043990;28;20018;-80
2023/04/17 02:45:23;;;;;;;94.13;60.30;;;;;;;;;;5050542;28;20034;-80
2023/04/17 02:47:49;;;;;;;93.97;56.47;;;;;;;;;;5050377;28;20097;-79
2023/04/17 02:50:15;;;;;;;104.90;58.67;;;;;;;;;;5043684;28;20040;-79
2023/04/17 02:52:41;;;;;;;84.33;53.80;;;;;;;;;;5054217;28;20120;-80
2023/04/17 02:55:08;;;;;;;85.33;55.47;;;;;;;;;;5043894;28;20005;-80
2023/04/17 02:57:36;;;;;;;91.83;56.23;;;;;;;;;;5045450;28;20044;-80
2023/04/17 03:00:06;;;;;;;85.23;53.90;;;;;;;;;;5043970;28;20077;-80
2023/04/17 03:02:33;;;;;;;91.47;55.97;;;;;;;;;;5042701;28;20029;-80
2023/04/17 03:05:03;;;;;;;85.73;51.37;;;;;;;;;;5045753;28;20019;-80
2023/04/17 03:07:31;;;;;;;90.30;55.27;;;;;;;;;;5039678;28;20212;-80
2023/04/17 03:10:05;;;;;;;85.73;55.00;;;;;;;;;;5053434;28;20045;-80
2023/04/17 03:12:33;;;;;;;83.97;54.10;;;;;;;;;;5043047;28;20026;-82
2023/04/17 03:14:59;;;;;;;83.03;52.90;;;;;;;;;;5052444;28;20021;-81
2023/04/17 03:17:25;;;;;;;84.57;53.97;;;;;;;;;;5051651;28;20036;-80
2023/04/17 03:19:51;;;;;;;82.67;53.97;;;;;;;;;;5051410;28;20021;-81
2023/04/17 03:22:18;;;;;;;81.37;52.13;;;;;;;;;;5045112;28;20038;-81
2023/04/17 03:24:44;;;;;;;86.37;55.97;;;;;;;;;;5042710;28;20018;-82
2023/04/17 03:27:10;;;;;;;87.43;55.50;;;;;;;;;;5048552;28;20036;-80
2023/04/17 03:29:36;;;;;;;93.83;56.00;;;;;;;;;;5041356;28;20079;-81
2023/04/17 03:32:02;;;;;;;83.17;55.13;;;;;;;;;;5054161;28;20014;-82
2023/04/17 03:34:28;;;;;;;84.93;53.77;;;;;;;;;;5043394;28;20022;-80
2023/04/17 03:36:54;;;;;;;84.30;54.90;;;;;;;;;;5057539;28;20034;-80
2023/04/17 03:39:20;;;;;;;80.00;54.33;;;;;;;;;;5054592;28;20074;-81
2023/04/17 03:41:46;;;;;;;86.20;53.97;;;;;;;;;;5053134;28;20029;-80
2023/04/17 03:44:16;;;;;;;88.53;53.43;;;;;;;;;;5056303;28;20020;-81
2023/04/17 03:46:42;;;;;;;97.67;56.37;;;;;;;;;;5048159;28;20021;-80
2023/04/17 03:49:08;;;;;;;86.30;53.87;;;;;;;;;;5051973;28;20018;-79
2023/04/17 03:51:34;;;;;;;84.40;53.37;;;;;;;;;;5062847;28;20017;-80
2023/04/17 03:54:02;;;;;;;76.27;52.20;;;;;;;;;;5060556;28;20018;-80
2023/04/17 03:56:28;;;;;;;75.80;51.20;;;;;;;;;;5055782;28;20052;-82
2023/04/17 03:58:55;;;;;;;79.83;50.23;;;;;;;;;;5056066;28;20032;-79
2023/04/17 04:01:21;;;;;;;75.77;50.07;;;;;;;;;;5066431;28;20163;-80
2023/04/17 04:03:47;;;;;;;69.73;48.70;;;;;;;;;;5057752;28;20154;-80
2023/04/17 04:06:15;;;;;;;70.70;48.17;;;;;;;;;;5059305;28;20056;-81
2023/04/17 04:08:41;;;;;;;69.57;45.33;;;;;;;;;;5058040;28;20013;-80
2023/04/17 04:11:07;;;;;;;63.83;45.27;;;;;;;;;;5057916;28;20034;-80
2023/04/17 04:13:33;;;;;;;65.23;44.67;;;;;;;;;;5061942;28;20029;-80
2023/04/17 04:15:59;;;;;;;68.57;45.37;;;;;;;;;;5059705;28;20068;-80
2023/04/17 04:18:25;;;;;;;67.00;44.57;;;;;;;;;;5049556;28;20033;-81
2023/04/17 04:20:54;;;;;;;69.60;44.93;;;;;;;;;;5039239;28;20044;-80
2023/04/17 04:23:22;;;;;;;66.53;43.90;;;;;;;;;;5059028;28;20042;-80
2023/04/17 04:25:48;;;;;;;63.83;43.87;;;;;;;;;;5046475;28;20037;-80
2023/04/17 04:28:16;;;;;;;65.73;45.90;;;;;;;;;;5059113;28;20020;-82
2023/04/17 04:30:59;;;;;;;;;;;;;;;;;;;;;
2023/04/17 04:33:26;;;;;;;68.63;46.23;;;;;;;;;;5065327;28;20041;-80
2023/04/17 04:35:59;;;;;;;77.43;49.50;;;;;;;;;;5052225;28;20071;-80
2023/04/17 04:38:29;;;;;;;77.73;49.30;;;;;;;;;;5058404;28;20035;-81
2023/04/17 04:41:00;;;;;;;71.10;47.10;;;;;;;;;;5058869;28;20036;-80
2023/04/17 04:43:29;;;;;;;71.73;47.10;;;;;;;;;;5040564;28;20018;-80
2023/04/17 04:45:55;;;;;;;72.87;47.27;;;;;;;;;;5056293;28;20163;-80
2023/04/17 04:48:21;;;;;;;68.50;45.97;;;;;;;;;;5042079;28;20021;-80
2023/04/17 04:50:47;;;;;;;69.57;47.80;;;;;;;;;;5049825;28;20033;-80
2023/04/17 04:53:16;;;;;;;74.97;46.80;;;;;;;;;;5055063;28;20048;-80
2023/04/17 04:55:42;;;;;;;70.10;46.90;;;;;;;;;;5047819;28;20013;-80
2023/04/17 04:58:08;;;;;;;70.93;45.43;;;;;;;;;;5057738;28;20033;-81
2023/04/17 05:00:37;;;;;;;66.77;47.43;;;;;;;;;;5059137;28;20037;-80
2023/04/17 05:03:06;;;;;;;69.30;45.20;;;;;;;;;;5058353;28;20029;-80
2023/04/17 05:05:34;;;;;;;69.57;45.87;;;;;;;;;;5056298;28;20063;-80
2023/04/17 05:08:00;;;;;;;65.90;45.90;;;;;;;;;;5057764;28;20040;-80
2023/04/17 05:10:26;;;;;;;64.37;44.53;;;;;;;;;;5058403;28;20044;-80
2023/04/17 05:12:52;;;;;;;67.13;45.63;;;;;;;;;;5048844;28;20028;-80
2023/04/17 05:15:19;;;;;;;69.17;45.53;;;;;;;;;;5049846;28;20026;-80
2023/04/17 05:17:45;;;;;;;66.80;46.57;;;;;;;;;;5051239;28;20036;-81
2023/04/17 05:20:19;;;;;;;69.20;45.53;;;;;;;;;;5051602;28;20025;-80
2023/04/17 05:22:45;;;;;;;68.20;46.47;;;;;;;;;;5051961;28;20010;-81
2023/04/17 05:25:11;;;;;;;69.17;45.60;;;;;;;;;;5052248;28;20020;-80
2023/04/17 05:27:37;;;;;;;61.77;42.77;;;;;;;;;;5050223;28;20034;-81
2023/04/17 05:30:04;;;;;;;62.20;44.00;;;;;;;;;;5050050;28;20025;-80
2023/04/17 05:32:34;;;;;;;71.67;45.93;;;;;;;;;;5048393;28;20029;-80
2023/04/17 05:35:00;;;;;;;64.93;43.07;;;;;;;;;;5051276;28;20033;-80
2023/04/17 05:37:26;;;;;;;66.53;44.53;;;;;;;;;;5049868;28;20097;-80
2023/04/17 05:39:54;;;;;;;65.77;44.27;;;;;;;;;;5047515;28;20048;-81
2023/04/17 05:42:23;;;;;;;59.50;42.20;;;;;;;;;;5047642;28;20371;-80
2023/04/17 05:44:54;;;;;;;57.93;41.63;;;;;;;;;;5055997;28;20023;-80
2023/04/17 05:47:20;;;;;;;53.30;38.77;;;;;;;;;;5062302;28;20065;-80
2023/04/17 05:49:47;;;;;;;56.40;39.10;;;;;;;;;;5056421;28;20021;-81
2023/04/17 05:52:13;;;;;;;55.83;40.57;;;;;;;;;;5057463;28;20025;-80
2023/04/17 05:54:45;;;;;;;56.30;39.87;;;;;;;;;;5043145;28;20037;-80
2023/04/17 05:57:11;;;;;;;58.28;39.72;;;;;;;;;;5058121;28;20018;-80
2023/04/17 06:02:36;;;;;;;53.40;37.37;;;;;;;;;;5106578;23;20029;-81
2023/04/17 06:05:18;;;;;;;54.47;38.00;;;;;;;;;;5146926;23;20037;-80
2023/04/17 06:07:47;;;;;;;56.53;39.17;;;;;;;;;;5056865;28;20057;-81
2023/04/17 06:10:13;;;;;;;56.50;39.57;;;;;;;;;;5035980;28;20031;-80
2023/04/17 06:12:39;;;;;;;55.77;39.20;;;;;;;;;;5034878;28;20021;-80
2023/04/17 06:15:08;;;;;;;59.20;39.83;;;;;;;;;;5029080;28;20213;-80
2023/04/17 06:17:35;;;;;;;57.80;39.50;;;;;;;;;;5052344;28;20025;-80
2023/04/17 06:20:06;;;;;;;53.33;37.67;;;;;;;;;;5053590;28;20259;-79
2023/04/17 06:22:32;;;;;;;57.53;40.27;;;;;;;;;;5031631;28;20044;-80
2023/04/17 06:24:58;;;;;;;59.63;42.47;;;;;;;;;;5051986;28;20033;-79
2023/04/17 06:27:34;;;;;;;58.17;41.20;;;;;;;;;;5035931;28;20222;-80
2023/04/17 06:30:00;;;;;;;53.17;38.60;;;;;;;;;;5032745;28;20089;-79
2023/04/17 06:32:28;;;;;;;61.97;42.00;;;;;;;;;;5028004;28;20081;-78
2023/04/17 06:34:54;;;;;;;60.17;41.27;;;;;;;;;;5030202;28;20044;-79
2023/04/17 06:37:23;;;;;;;60.33;43.73;;;;;;;;;;5044832;28;20052;-78
2023/04/17 06:42:25;;;;;;;62.57;43.67;;;;;;;;;;5262979;22;20052;-80
2023/04/17 06:44:59;;;;;;;67.50;42.03;;;;;;;;;;5075948;28;20009;-80
2023/04/17 06:47:32;;;;;;;61.17;43.03;;;;;;;;;;5074322;28;20130;-80
2023/04/17 06:49:58;;;;;;;63.10;41.30;;;;;;;;;;5076390;28;20081;-80
2023/04/17 06:52:25;;;;;;;57.13;41.63;;;;;;;;;;5075080;28;22877;-80
2023/04/17 06:54:53;;;;;;;63.30;41.63;;;;;;;;;;5078162;28;20039;-80
2023/04/17 06:57:20;;;;;;;60.90;42.97;;;;;;;;;;5079615;28;20029;-78
2023/04/17 06:59:49;;;;;;;62.83;41.67;;;;;;;;;;5076293;28;20047;-80
2023/04/17 07:02:15;;;;;;;59.13;42.30;;;;;;;;;;5078615;28;20044;-80
2023/04/17 07:04:43;;;;;;;60.57;42.27;;;;;;;;;;5078250;28;20055;-80
2023/04/17 07:07:10;;;;;;;64.93;44.20;;;;;;;;;;5080284;28;20036;-80
2023/04/17 07:12:33;;;;;;;67.47;43.63;;;;;;;;;;5079261;28;20013;-80
2023/04/17 07:15:01;;;;;;;63.90;42.80;;;;;;;;;;5077123;28;20017;-84
2023/04/17 07:17:27;;;;;;;63.63;43.33;;;;;;;;;;5089683;28;20029;-81
2023/04/17 07:19:53;;;;;;;61.47;43.50;;;;;;;;;;5085305;28;20016;-81
2023/04/17 07:22:22;;;;;;;57.83;42.47;;;;;;;;;;5082623;28;20016;-80
2023/04/17 07:24:48;;;;;;;61.17;43.43;;;;;;;;;;5079582;28;20009;-80
2023/04/17 07:27:14;;;;;;;62.27;43.90;;;;;;;;;;5083259;28;20032;-80
2023/04/17 07:29:40;;;;;;;61.23;44.03;;;;;;;;;;5082252;28;20035;-80
2023/04/17 07:32:09;;;;;;;62.67;43.77;;;;;;;;;;5081082;28;20012;-80
2023/04/17 07:34:40;;;;;;;63.43;43.70;;;;;;;;;;5079925;28;20089;-83
2023/04/17 07:37:06;;;;;;;66.73;45.50;;;;;;;;;;5081184;28;20139;-80
2023/04/17 07:39:32;;;;;;;61.80;45.97;;;;;;;;;;5083767;28;20013;-81
2023/04/17 07:41:58;;;;;;;62.63;43.73;;;;;;;;;;5078109;28;20017;-80
2023/04/17 07:44:24;;;;;;;62.20;44.53;;;;;;;;;;5081539;28;20033;-80
2023/04/17 07:46:50;;;;;;;63.20;43.83;;;;;;;;;;5077200;28;20017;-81
2023/04/17 07:49:18;;;;;;;61.63;43.30;;;;;;;;;;5082487;28;20016;-81
2023/04/17 07:51:44;;;;;;;69.70;46.27;;;;;;;;;;5087160;28;20013;-80
2023/04/17 07:54:10;;;;;;;61.10;44.13;;;;;;;;;;5081643;28;21391;-80
2023/04/17 07:56:36;;;;;;;64.83;44.73;;;;;;;;;;5080011;28;20033;-80
2023/04/17 07:59:02;;;;;;;60.60;42.87;;;;;;;;;;5080418;28;20036;-81
2023/04/17 08:01:28;;;;;;;66.87;45.93;;;;;;;;;;5080613;28;20029;-82
2023/04/17 08:03:54;;;;;;;61.33;41.63;;;;;;;;;;5081403;28;20017;-80
2023/04/17 08:06:20;;;;;;;55.43;38.90;;;;;;;;;;5081694;28;20005;-80
2023/04/17 08:08:46;;;;;;;53.57;39.10;;;;;;;;;;5078307;28;20035;-81
2023/04/17 08:11:15;;;;;;;51.50;37.03;;;;;;;;;;5081649;28;20009;-80
2023/04/17 08:13:44;;;;;;;49.77;35.70;;;;;;;;;;5085807;28;20076;-80
2023/04/17 08:16:10;;;;;;;48.77;34.73;;;;;;;;;;5076773;28;20029;-81
2023/04/17 08:18:36;;;;;;;47.67;36.03;;;;;;;;;;5079200;28;20032;-80
2023/04/17 08:21:03;;;;;;;49.20;35.50;;;;;;;;;;5080363;28;20013;-80
2023/04/17 08:23:29;;;;;;;50.13;36.13;;;;;;;;;;5078978;28;20076;-80
2023/04/17 08:25:55;;;;;;;45.43;34.13;;;;;;;;;;5080425;28;20016;-80
2023/04/17 08:28:21;;;;;;;48.30;34.70;;;;;;;;;;5081888;28;20016;-80
2023/04/17 08:30:47;;;;;;;47.67;34.30;;;;;;;;;;5078392;28;20040;-80
2023/04/17 08:33:17;;;;;;;47.43;33.37;;;;;;;;;;5078134;28;20009;-80
2023/04/17 08:35:43;;;;;;;43.33;31.10;;;;;;;;;;5084941;28;20013;-80
2023/04/17 08:38:13;;;;;;;44.13;31.53;;;;;;;;;;5079631;28;20040;-80
2023/04/17 08:40:42;;;;;;;46.33;32.90;;;;;;;;;;5082897;28;20016;-80
2023/04/17 08:43:17;;;;;;;43.30;31.97;;;;;;;;;;5079393;28;20025;-79
2023/04/17 08:45:48;;;;;;;40.93;29.47;;;;;;;;;;5076172;28;20009;-82
2023/04/17 08:48:17;;;;;;;40.83;27.53;;;;;;;;;;5077105;28;20013;-80
2023/04/17 08:50:47;;;;;;;36.70;25.23;;;;;;;;;;5076027;28;20051;-79
2023/04/17 08:53:15;;;;;;;36.83;26.23;;;;;;;;;;5079053;28;20075;-80
2023/04/17 08:55:44;;;;;;;37.03;27.40;;;;;;;;;;5079968;28;20013;-80
2023/04/17 08:58:10;;;;;;;33.63;25.10;;;;;;;;;;5078655;28;20116;-80
2023/04/17 09:00:37;;;;;;;33.73;24.90;;;;;;;;;;5082587;28;20033;-80
2023/04/17 09:03:06;;;;;;;40.57;28.77;;;;;;;;;;5077766;28;20021;-79
2023/04/17 09:05:32;;;;;;;36.90;27.07;;;;;;;;;;5079282;28;20032;-80
2023/04/17 09:08:24;;;;;;;36.13;26.47;;;;;;;;;;5079722;28;20073;-80
2023/04/17 09:10:54;;;;;;;36.80;27.27;;;;;;;;;;5077976;28;20037;-81
2023/04/17 09:13:24;;;;;;;34.03;25.90;;;;;;;;;;5076972;28;20056;-79
2023/04/17 09:16:06;;;;;;;34.70;26.00;;;;;;;;;;5077609;28;20028;-79
2023/04/17 09:18:35;;;;;;;33.58;24.52;;;;;;;;;;5078417;28;20029;-80
2023/04/17 09:21:07;;;;;;;25.80;19.37;;;;;;;;;;5077902;28;20017;-79
2023/04/17 09:24:06;;;;;;;28.08;19.58;;;;;;;;;;5080091;28;20037;-79
2023/04/17 09:26:34;;;;;;;27.53;19.47;;;;;;;;;;5076033;28;20084;-80
2023/04/17 09:29:09;;;;;;;27.67;20.43;;;;;;;;;;5077386;28;20027;-79
2023/04/17 09:31:36;;;;;;;31.47;22.07;;;;;;;;;;5078141;28;20072;-80
2023/04/17 09:34:06;;;;;;;30.47;22.60;;;;;;;;;;5077029;28;20017;-79
2023/04/17 09:36:38;;;;;;;30.00;20.67;;;;;;;;;;5076435;28;20057;-80
2023/04/17 09:39:17;;;;;;;28.60;20.25;;;;;;;;;;5076495;28;20024;-78
2023/04/17 09:41:43;;;;;;;30.53;20.87;;;;;;;;;;5077069;28;20079;-80
2023/04/17 09:44:11;;;;;;;33.07;22.03;;;;;;;;;;5077254;28;20017;-80
2023/04/17 09:46:38;;;;;;;29.30;20.80;;;;;;;;;;5077285;28;20055;-80
2023/04/17 09:49:08;;;;;;;27.90;21.10;;;;;;;;;;5076010;28;20028;-80
2023/04/17 09:51:36;;;;;;;29.40;21.93;;;;;;;;;;5075092;28;20031;-80
2023/04/17 09:54:08;;;;;;;26.27;20.10;;;;;;;;;;5074975;28;20021;-80
2023/04/17 09:56:36;;;;;;;33.30;20.63;;;;;;;;;;5079822;28;20059;-80
2023/04/17 09:59:05;;;;;;;26.10;19.20;;;;;;;;;;5076007;28;20021;-80
2023/04/17 10:01:32;;;;;;;25.53;18.40;;;;;;;;;;5077031;28;20047;-80
2023/04/17 10:03:59;;;;;;;28.43;17.90;;;;;;;;;;5079784;28;20038;-80
2023/04/17 10:06:26;;;;;;;26.63;19.20;;;;;;;;;;5077585;28;20005;-79
2023/04/17 10:08:52;;;;;;;25.47;18.30;;;;;;;;;;5076017;28;20021;-80
2023/04/17 10:11:18;;;;;;;25.10;18.33;;;;;;;;;;5077458;28;20017;-81
2023/04/17 10:13:48;;;;;;;22.30;17.07;;;;;;;;;;5077704;28;20009;-80
2023/04/17 10:16:14;;;;;;;29.50;18.83;;;;;;;;;;5077468;28;20025;-79
2023/04/17 10:18:40;;;;;;;22.83;16.17;;;;;;;;;;5075445;28;20041;-80
2023/04/17 10:21:21;;;;;;;22.33;16.50;;;;;;;;;;5074785;28;20013;-80
2023/04/17 10:23:47;;;;;;;22.70;16.73;;;;;;;;;;5076771;28;20013;-80
2023/04/17 10:26:25;;;;;;;25.07;16.10;;;;;;;;;;5076763;28;20121;-80
2023/04/17 10:28:52;;;;;;;22.03;15.13;;;;;;;;;;5078300;28;20021;-79
2023/04/17 10:31:18;;;;;;;18.40;15.33;;;;;;;;;;5077381;28;20017;-80
2023/04/17 10:33:54;;;;;;;22.17;15.43;;;;;;;;;;5079480;28;20043;-80
2023/04/17 10:36:41;;;;;;;20.40;12.57;;;;;;;;;;5079156;28;20037;-80
2023/04/17 10:39:19;;;;;;;19.53;12.63;;;;;;;;;;5058816;28;20169;-80
2023/04/17 10:42:04;;;;;;;15.33;12.67;;;;;;;;;;5078404;28;20021;-80
2023/04/17 10:44:39;;;;;;;18.75;12.25;;;;;;;;;;5079766;28;20029;-80
2023/04/17 10:47:13;;;;;;;15.23;11.57;;;;;;;;;;5080998;28;20095;-80
2023/04/17 10:49:50;;;;;;;17.77;12.35;;;;;;;;;;5078802;28;20036;-80
2023/04/17 10:52:37;;;;;;;16.75;12.10;;;;;;;;;;5079588;28;20052;-80
2023/04/17 10:55:24;;;;;;;17.65;12.60;;;;;;;;;;5078700;28;20036;-80
2023/04/17 10:57:54;;;;;;;19.10;11.03;;;;;;;;;;5078764;28;20049;-80
2023/04/17 11:00:28;;;;;;;16.67;12.20;;;;;;;;;;5077386;28;20047;-80
2023/04/17 11:02:54;;;;;;;17.50;12.07;;;;;;;;;;5078767;28;20237;-79
2023/04/17 11:05:23;;;;;;;19.97;11.47;;;;;;;;;;5082237;28;20080;-80
2023/04/17 11:07:50;;;;;;;16.53;10.40;;;;;;;;;;5078528;28;20055;-79
2023/04/17 11:10:16;;;;;;;17.73;9.88;;;;;;;;;;5345173;22;20027;-80
2023/04/17 11:12:45;;;;;;;13.40;10.47;;;;;;;;;;5078919;28;20016;-80
2023/04/17 11:15:11;;;;;;;13.17;9.97;;;;;;;;;;5078508;28;20016;-79
2023/04/17 11:17:41;;;;;;;15.45;10.52;;;;;;;;;;5077737;28;20048;-78
2023/04/17 11:20:08;;;;;;;14.23;10.33;;;;;;;;;;5077987;28;20013;-81
2023/04/17 11:22:34;;;;;;;17.02;10.18;;;;;;;;;;5080066;28;20032;-79
2023/04/17 11:25:02;;;;;;;14.68;10.23;;;;;;;;;;5081022;28;20025;-80
2023/04/17 11:27:30;;;;;;;15.18;10.48;;;;;;;;;;5080413;28;20004;-80
2023/04/17 11:29:56;;;;;;;12.82;10.07;;;;;;;;;;5079424;28;20072;-79
2023/04/17 11:32:25;;;;;;;12.35;9.15;;;;;;;;;;5076694;28;20052;-79
2023/04/17 11:34:53;;;;;;;12.18;8.95;;;;;;;;;;5078597;28;20040;-80
2023/04/17 11:37:19;;;;;;;15.50;8.73;;;;;;;;;;5079356;28;20037;-80
2023/04/17 11:39:48;;;;;;;12.35;8.18;;;;;;;;;;5076572;28;20554;-80
2023/04/17 11:42:24;;;;;;;14.88;8.70;;;;;;;;;;5077174;28;20020;-79
2023/04/17 11:44:50;;;;;;;12.20;8.05;;;;;;;;;;5079635;28;20076;-80
2023/04/17 11:47:21;;;;;;;11.60;8.55;;;;;;;;;;5082786;28;20029;-79
2023/04/17 11:49:48;;;;;;;11.35;8.57;;;;;;;;;;5079658;28;20076;-80
2023/04/17 11:52:15;;;;;;;11.98;7.72;;;;;;;;;;5080266;28;20032;-80
2023/04/17 11:54:41;;;;;;;14.27;10.30;;;;;;;;;;5079020;28;20085;-79
2023/04/17 11:57:13;;;;;;;12.30;9.20;;;;;;;;;;5079346;28;20029;-80
2023/04/17 11:59:40;;;;;;;;;;;;;;;;;;5082890;28;20028;-80
2023/04/17 12:02:07;;;;;;;13.00;8.15;;;;;;;;;;5077799;28;19900;-80
2023/04/17 12:04:38;;;;;;;9.25;7.65;;;;;;;;;;5077308;28;20021;-77
2023/04/17 12:07:06;;;;;;;12.15;8.35;;;;;;;;;;5077544;28;20025;-80
2023/04/17 12:09:33;;;;;;;11.70;7.97;;;;;;;;;;5078389;28;20025;-80
2023/04/17 12:12:08;;;;;;;11.00;8.80;;;;;;;;;;5076021;28;20052;-80
2023/04/17 12:14:35;;;;;;;13.18;7.68;;;;;;;;;;5078357;28;20021;-80
2023/04/17 12:17:01;;;;;;;12.68;7.68;;;;;;;;;;5080772;28;20075;-80
2023/04/17 12:19:28;;;;;;;8.95;6.95;;;;;;;;;;5079689;28;20039;-80
2023/04/17 12:21:55;;;;;;;9.90;6.85;;;;;;;;;;5076313;28;20029;-79
2023/04/17 12:24:23;;;;;;;9.05;6.25;;;;;;;;;;5076759;28;20043;-80
2023/04/17 12:26:50;;;;;;;9.35;5.93;;;;;;;;;;5078176;28;20698;-80
2023/04/17 12:29:16;;;;;;;8.15;6.18;;;;;;;;;;5078782;28;20013;-80
2023/04/17 12:31:44;;;;;;;8.43;5.80;;;;;;;;;;5077325;28;20044;-79
2023/04/17 12:34:10;;;;;;;10.68;6.53;;;;;;;;;;5077062;28;20025;-80
2023/04/17 12:36:42;;;;;;;8.30;6.30;;;;;;;;;;5078008;28;20024;-80
2023/04/17 12:39:08;;;;;;;9.40;6.47;;;;;;;;;;5080787;28;20027;-81
2023/04/17 12:41:37;;;;;;;7.97;5.43;;;;;;;;;;5075428;28;20021;-80
2023/04/17 12:44:03;;;;;;;8.75;5.60;;;;;;;;;;5073884;28;20044;-80
2023/04/17 12:46:32;;;;;;;11.95;5.70;;;;;;;;;;5073862;28;20102;-80
2023/04/17 12:48:58;;;;;;;9.80;5.93;;;;;;;;;;5078827;28;20040;-82
2023/04/17 12:51:27;;;;;;;6.57;5.18;;;;;;;;;;5075329;28;20025;-79
2023/04/17 12:53:54;;;;;;;6.97;4.85;;;;;;;;;;5076010;28;20032;-81
2023/04/17 12:56:20;;;;;;;10.93;5.65;;;;;;;;;;5076607;28;20036;-81
2023/04/17 12:58:49;;;;;;;9.38;4.93;;;;;;;;;;5079103;28;20029;-79
2023/04/17 13:01:18;;;;;;;9.23;5.05;;;;;;;;;;5075616;28;20036;-79
2023/04/17 13:03:44;;;;;;;6.15;4.85;;;;;;;;;;5075715;28;20020;-81
2023/04/17 13:06:15;;;;;;;8.07;5.68;;;;;;;;;;5079038;28;20037;-80
2023/04/17 13:08:48;;;;;;;9.43;5.80;;;;;;;;;;5076107;28;20028;-80
2023/04/17 13:11:17;;;;;;;11.20;5.60;;;;;;;;;;5077190;28;20056;-80
2023/04/17 13:13:43;;;;;;;7.35;4.63;;;;;;;;;;5077584;28;20044;-80
2023/04/17 13:16:09;;;;;;;9.38;4.68;;;;;;;;;;5076812;28;20021;-79
2023/04/17 13:18:36;;;;;;;8.63;5.22;;;;;;;;;;5073685;28;20047;-79
2023/04/17 13:21:05;;;;;;;10.82;5.35;;;;;;;;;;5074438;28;20035;-78
2023/04/17 13:23:31;;;;;;;7.93;5.30;;;;;;;;;;5073544;28;20031;-82
2023/04/17 13:25:57;;;;;;;8.20;5.78;;;;;;;;;;5074386;28;20075;-80
2023/04/17 13:28:29;;;;;;;9.55;5.32;;;;;;;;;;5074157;28;20036;-80
2023/04/17 13:30:55;;;;;;;8.75;5.65;;;;;;;;;;5074478;28;20009;-79
2023/04/17 13:33:21;;;;;;;8.35;4.97;;;;;;;;;;5077162;28;20029;-80
2023/04/17 13:35:47;;;;;;;9.18;5.28;;;;;;;;;;5074280;28;20140;-81
2023/04/17 13:38:13;;;;;;;6.82;4.95;;;;;;;;;;5074900;28;20063;-79
2023/04/17 13:40:44;;;;;;;11.65;5.45;;;;;;;;;;5076925;28;20017;-80
2023/04/17 13:43:10;;;;;;;7.78;4.90;;;;;;;;;;5077207;28;20089;-80
2023/04/17 13:45:39;;;;;;;12.82;5.50;;;;;;;;;;5076656;28;20100;-80
2023/04/17 13:48:05;;;;;;;10.00;5.18;;;;;;;;;;5074805;28;20020;-80
2023/04/17 13:50:31;;;;;;;8.20;5.55;;;;;;;;;;5074339;28;20021;-80
2023/04/17 13:52:57;;;;;;;8.48;6.25;;;;;;;;;;5075353;28;20271;-82
2023/04/17 13:55:23;;;;;;;6.93;4.97;;;;;;;;;;5075381;28;20029;-80
2023/04/17 13:57:51;;;;;;;9.95;5.13;;;;;;;;;;5074382;28;20064;-79
2023/04/17 14:00:20;;;;;;;7.15;4.82;;;;;;;;;;5075767;28;20028;-80
2023/04/17 14:02:46;;;;;;;9.63;5.35;;;;;;;;;;5059625;28;20085;-80
2023/04/17 14:05:15;;;;;;;10.07;5.70;;;;;;;;;;5072967;28;20292;-80
2023/04/17 14:07:41;;;;;;;8.48;5.38;;;;;;;;;;5072686;28;20067;-80
2023/04/17 14:10:07;;;;;;;8.52;5.38;;;;;;;;;;5076584;28;20021;-81
2023/04/17 14:12:43;;;;;;;11.00;5.15;;;;;;;;;;5057266;28;20120;-79
2023/04/17 14:15:09;;;;;;;8.00;5.15;;;;;;;;;;5075569;28;20029;-80
2023/04/17 14:17:39;;;;;;;9.27;5.03;;;;;;;;;;5076425;28;20037;-80
2023/04/17 14:20:06;;;;;;;7.47;5.57;;;;;;;;;;5074719;28;20017;-80
2023/04/17 14:22:32;;;;;;;8.40;5.28;;;;;;;;;;5075781;28;20037;-80
2023/04/17 14:24:58;;;;;;;10.57;6.90;;;;;;;;;;5075574;28;20092;-80
2023/04/17 14:27:26;;;;;;;13.80;6.22;;;;;;;;;;5075972;28;20047;-79
2023/04/17 14:29:52;;;;;;;10.05;5.78;;;;;;;;;;5076222;28;20232;-80
2023/04/17 14:32:18;;;;;;;9.88;5.57;;;;;;;;;;5075646;28;20017;-79
2023/04/17 14:34:44;;;;;;;11.80;6.13;;;;;;;;;;5074037;28;20088;-80
2023/04/17 14:37:13;;;;;;;7.32;4.88;;;;;;;;;;5074287;28;20048;-79
2023/04/17 14:39:47;;;;;;;9.00;5.28;;;;;;;;;;5075388;28;20112;-80